createdAt,value
2023-03-02T00:01:45.471Z,15.70
2023-03-02T00:04:17.195Z,14.23
2023-03-02T00:06:46.768Z,15.33
2023-03-02T00:09:14.873Z,16.40
2023-03-02T00:11:43.141Z,15.13
2023-03-02T00:14:11.274Z,13.87
2023-03-02T00:16:40.265Z,13.23
2023-03-02T00:19:08.606Z,14.73
2023-03-02T00:21:36.692Z,14.73
2023-03-02T00:24:10.009Z,14.60
2023-03-02T00:26:38.779Z,14.57
2023-03-02T00:29:07.185Z,14.33
2023-03-02T00:31:35.465Z,13.93
2023-03-02T00:34:03.923Z,17.07
2023-03-02T00:36:35.034Z,14.17
2023-03-02T00:39:04.535Z,14.43
2023-03-02T00:41:34.135Z,15.27
2023-03-02T00:44:02.239Z,15.53
2023-03-02T00:46:31.144Z,14.37
2023-03-02T00:49:00.388Z,15.90
2023-03-02T00:51:28.540Z,14.97
2023-03-02T00:53:56.628Z,13.97
2023-03-02T00:56:24.793Z,12.37
2023-03-02T00:58:55.794Z,15.20
2023-03-02T01:01:24.233Z,13.73
2023-03-02T01:03:54.300Z,16.77
2023-03-02T01:06:22.778Z,14.17
2023-03-02T01:08:50.976Z,14.47
2023-03-02T01:11:20.976Z,14.47
2023-03-02T01:13:49.319Z,14.00
2023-03-02T01:16:18.954Z,15.73
2023-03-02T01:18:47.081Z,14.70
2023-03-02T01:21:16.697Z,14.50
2023-03-02T01:23:45.377Z,12.53
2023-03-02T01:26:13.450Z,13.90
2023-03-02T01:28:41.473Z,14.83
2023-03-02T01:31:09.548Z,17.27
2023-03-02T01:33:38.996Z,17.10
2023-03-02T01:36:08.104Z,15.83
2023-03-02T01:38:36.189Z,16.13
2023-03-02T01:41:04.757Z,16.67
2023-03-02T01:43:32.938Z,12.80
2023-03-02T01:46:02.290Z,14.60
2023-03-02T01:48:48.002Z,14.43
2023-03-02T01:51:23.216Z,13.17
2023-03-02T01:53:55.547Z,13.77
2023-03-02T01:56:27.155Z,13.33
2023-03-02T01:59:01.921Z,12.50
2023-03-02T02:01:30.540Z,15.30
2023-03-02T02:04:01.587Z,13.63
2023-03-02T02:06:33.304Z,14.77
2023-03-02T02:09:02.701Z,13.70
2023-03-02T02:11:30.742Z,14.23
2023-03-02T02:14:00.597Z,13.70
2023-03-02T02:16:29.396Z,11.90
2023-03-02T02:18:59.055Z,13.77
2023-03-02T02:21:28.105Z,11.70
2023-03-02T02:24:05.289Z,13.63
2023-03-02T02:26:38.129Z,12.47
2023-03-02T02:29:08.503Z,12.77
2023-03-02T02:31:39.210Z,14.77
2023-03-02T02:34:13.693Z,16.13
2023-03-02T02:36:44.634Z,13.10
2023-03-02T02:39:18.806Z,14.27
2023-03-02T02:41:49.112Z,13.23
2023-03-02T02:44:18.305Z,13.17
2023-03-02T02:46:46.698Z,13.73
2023-03-02T02:49:22.652Z,14.93
2023-03-02T02:51:51.663Z,12.80
2023-03-02T02:54:20.083Z,12.97
2023-03-02T02:56:50.120Z,12.47
2023-03-02T02:59:21.290Z,12.03
2023-03-02T03:01:49.848Z,11.43
2023-03-02T03:04:20.572Z,11.10
2023-03-02T03:06:53.562Z,11.80
2023-03-02T03:09:22.260Z,15.00
2023-03-02T03:11:54.543Z,17.80
2023-03-02T03:14:26.032Z,13.53
2023-03-02T03:16:55.301Z,11.73
2023-03-02T03:19:25.647Z,12.57
2023-03-02T03:21:56.445Z,11.47
2023-03-02T03:24:26.454Z,13.47
2023-03-02T03:26:57.442Z,13.40
2023-03-02T03:29:28.118Z,12.70
2023-03-02T03:32:01.336Z,14.50
2023-03-02T03:34:30.579Z,15.70
2023-03-02T03:37:01.703Z,13.93
2023-03-02T03:39:32.669Z,13.00
2023-03-02T03:42:02.417Z,11.33
2023-03-02T03:44:30.942Z,15.83
2023-03-02T03:46:59.514Z,11.80
2023-03-02T03:49:27.966Z,13.23
2023-03-02T03:51:56.446Z,12.47
2023-03-02T03:54:24.870Z,13.50
2023-03-02T03:56:52.927Z,14.10
2023-03-02T03:59:24.773Z,14.63
2023-03-02T04:01:58.740Z,13.80
2023-03-02T04:04:32.386Z,13.20
2023-03-02T04:07:01.503Z,12.77
2023-03-02T04:09:32.194Z,16.20
2023-03-02T04:12:00.434Z,12.10
2023-03-02T04:14:30.271Z,15.70
2023-03-02T04:16:58.952Z,13.93
2023-03-02T04:19:27.739Z,12.60
2023-03-02T04:21:58.774Z,13.83
2023-03-02T04:24:27.859Z,12.40
2023-03-02T04:26:58.044Z,12.63
2023-03-02T04:29:26.497Z,13.63
2023-03-02T04:31:56.940Z,16.10
2023-03-02T04:34:26.793Z,14.77
2023-03-02T04:36:55.695Z,18.03
2023-03-02T04:39:24.457Z,15.50
2023-03-02T04:41:54.351Z,14.53
2023-03-02T04:44:22.647Z,12.87
2023-03-02T04:46:51.510Z,14.73
2023-03-02T04:49:21.606Z,14.93
2023-03-02T04:51:50.385Z,12.80
2023-03-02T04:54:21.409Z,16.50
2023-03-02T04:56:49.620Z,13.77
2023-03-02T04:59:18.332Z,12.03
2023-03-02T05:01:49.257Z,13.43
2023-03-02T05:04:17.393Z,13.90
2023-03-02T05:06:46.986Z,12.23
2023-03-02T05:09:15.151Z,12.80
2023-03-02T05:11:43.190Z,12.37
2023-03-02T05:14:13.089Z,13.93
2023-03-02T05:16:42.460Z,13.33
2023-03-02T05:19:12.562Z,16.57
2023-03-02T05:21:40.898Z,14.60
2023-03-02T05:24:10.966Z,14.60
2023-03-02T05:26:39.333Z,15.27
2023-03-02T05:29:07.525Z,13.33
2023-03-02T05:31:37.453Z,11.20
2023-03-02T05:34:06.903Z,14.17
2023-03-02T05:36:35.384Z,14.23
2023-03-02T05:39:04.220Z,13.00
2023-03-02T05:41:33.531Z,14.30
2023-03-02T05:44:01.642Z,15.87
2023-03-02T05:46:29.795Z,11.90
2023-03-02T05:48:57.903Z,11.70
2023-03-02T05:51:26.025Z,12.93
2023-03-02T05:53:54.068Z,14.50
2023-03-02T05:56:22.572Z,12.20
2023-03-02T05:58:51.914Z,12.57
2023-03-02T06:01:20.018Z,12.63
2023-03-02T06:03:48.114Z,15.17
2023-03-02T06:06:16.247Z,14.97
2023-03-02T06:08:44.837Z,14.43
2023-03-02T06:11:13.368Z,13.90
2023-03-02T06:13:41.510Z,16.60
2023-03-02T06:16:11.345Z,13.57
2023-03-02T06:18:41.473Z,13.57
2023-03-02T06:21:09.728Z,12.10
2023-03-02T06:23:37.729Z,12.17
2023-03-02T06:26:10.116Z,15.40
2023-03-02T06:28:51.529Z,15.37
2023-03-02T06:31:22.068Z,16.93
2023-03-02T06:33:50.247Z,15.47
2023-03-02T06:36:18.436Z,12.87
2023-03-02T06:38:46.496Z,16.53
2023-03-02T06:41:14.560Z,15.37
2023-03-02T06:43:43.478Z,14.97
2023-03-02T06:46:11.633Z,16.23
2023-03-02T06:48:41.099Z,14.40
2023-03-02T06:51:09.560Z,17.73
2023-03-02T06:53:37.713Z,15.07
2023-03-02T06:56:06.743Z,12.70
2023-03-02T06:58:34.785Z,15.03
2023-03-02T07:01:02.763Z,16.63
2023-03-02T07:03:31.152Z,16.33
2023-03-02T07:06:00.663Z,16.40
2023-03-02T07:08:28.733Z,15.37
2023-03-02T07:10:56.840Z,18.40
2023-03-02T07:13:25.010Z,14.73
2023-03-02T07:15:54.928Z,14.50
2023-03-02T07:18:22.970Z,14.57
2023-03-02T07:20:50.961Z,17.13
2023-03-02T07:23:20.639Z,13.83
2023-03-02T07:25:48.675Z,19.43
2023-03-02T07:28:16.927Z,14.03
2023-03-02T07:30:45.006Z,13.27
2023-03-02T07:33:13.121Z,16.70
2023-03-02T07:35:41.181Z,12.17
2023-03-02T07:38:09.270Z,15.33
2023-03-02T07:40:41.363Z,15.77
2023-03-02T07:43:09.431Z,15.97
2023-03-02T07:45:38.454Z,14.93
2023-03-02T07:48:06.980Z,13.37
2023-03-02T07:50:35.324Z,15.83
2023-03-02T07:53:03.334Z,14.27
2023-03-02T07:55:31.312Z,17.23
2023-03-02T07:58:00.782Z,15.07
2023-03-02T08:00:29.055Z,15.43
2023-03-02T08:02:57.099Z,13.70
2023-03-02T08:05:25.068Z,15.93
2023-03-02T08:07:53.121Z,14.27
2023-03-02T08:10:21.281Z,13.20
2023-03-02T08:12:49.343Z,18.13
2023-03-02T08:15:19.375Z,17.27
2023-03-02T08:17:47.428Z,16.07
2023-03-02T08:20:15.740Z,16.17
2023-03-02T08:22:44.039Z,16.10
2023-03-02T08:25:12.259Z,13.27
2023-03-02T08:27:41.124Z,13.57
2023-03-02T08:30:10.702Z,18.40
2023-03-02T08:32:40.463Z,15.70
2023-03-02T08:35:09.193Z,14.40
2023-03-02T08:37:37.208Z,14.23
2023-03-02T08:40:06.064Z,16.80
2023-03-02T08:42:34.129Z,13.33
2023-03-02T08:45:02.332Z,12.80
2023-03-02T08:47:30.649Z,13.20
2023-03-02T08:50:00.243Z,12.57
2023-03-02T08:52:28.476Z,15.43
2023-03-02T08:54:56.588Z,14.03
2023-03-02T08:57:24.727Z,16.07
2023-03-02T08:59:53.078Z,15.43
2023-03-02T09:02:21.080Z,15.43
2023-03-02T09:04:49.637Z,13.63
2023-03-02T09:07:19.662Z,16.83
2023-03-02T09:09:47.808Z,20.77
2023-03-02T09:12:15.993Z,14.70
2023-03-02T09:14:44.026Z,12.73
2023-03-02T09:17:16.743Z,14.27
2023-03-02T09:19:44.901Z,15.40
2023-03-02T09:22:12.937Z,13.57
2023-03-02T09:24:42.276Z,15.30
2023-03-02T09:27:10.327Z,16.23
2023-03-02T09:29:38.385Z,11.70
2023-03-02T09:32:06.807Z,13.83
2023-03-02T09:34:35.007Z,13.07
2023-03-02T09:37:03.970Z,15.33
2023-03-02T09:39:32.083Z,13.57
2023-03-02T09:42:22.879Z,14.27
2023-03-02T09:45:25.214Z,12.97
2023-03-02T09:48:04.211Z,14.73
2023-03-02T09:50:34.285Z,15.63
2023-03-02T09:53:18.431Z,17.07
2023-03-02T09:55:48.244Z,12.33
2023-03-02T09:58:20.541Z,12.17
2023-03-02T10:00:49.270Z,16.07
2023-03-02T10:03:19.350Z,12.73
2023-03-02T10:05:49.392Z,13.80
2023-03-02T10:08:20.815Z,14.57
2023-03-02T10:10:55.648Z,12.43
2023-03-02T10:13:28.066Z,17.73
2023-03-02T10:16:14.384Z,14.80
2023-03-02T10:18:45.372Z,13.20
2023-03-02T10:21:21.474Z,13.40
2023-03-02T10:23:56.181Z,13.10
2023-03-02T10:26:28.609Z,12.83
2023-03-02T10:29:02.735Z,15.53
2023-03-02T10:31:32.804Z,13.13
2023-03-02T10:34:01.839Z,12.00
2023-03-02T10:36:31.231Z,16.97
2023-03-02T10:39:00.532Z,15.13
2023-03-02T10:41:32.968Z,13.77
2023-03-02T10:44:04.932Z,13.03
2023-03-02T10:46:42.224Z,13.87
2023-03-02T10:49:28.992Z,14.13
2023-03-02T10:52:02.299Z,13.30
2023-03-02T10:54:31.677Z,13.23
2023-03-02T10:57:01.660Z,14.47
2023-03-02T10:59:47.829Z,12.50
2023-03-02T11:02:23.825Z,16.17
2023-03-02T11:04:57.573Z,14.67
2023-03-02T11:07:30.301Z,13.53
2023-03-02T11:10:03.150Z,12.63
2023-03-02T11:12:32.360Z,13.43
2023-03-02T11:15:17.163Z,12.17
2023-03-02T11:17:46.670Z,10.70
2023-03-02T11:20:17.991Z,13.83
2023-03-02T11:22:51.045Z,11.37
2023-03-02T11:25:24.998Z,13.13
2023-03-02T11:27:58.614Z,12.27
2023-03-02T11:30:29.776Z,12.47
2023-03-02T11:33:01.940Z,14.83
2023-03-02T11:35:32.941Z,14.30
2023-03-02T11:38:05.715Z,14.43
2023-03-02T11:40:35.989Z,15.60
2023-03-02T11:43:05.627Z,14.93
2023-03-02T11:45:38.006Z,11.67
2023-03-02T11:48:07.972Z,13.40
2023-03-02T11:50:38.961Z,11.50
2023-03-02T11:53:11.445Z,13.87
2023-03-02T11:55:48.514Z,15.60
2023-03-02T11:58:20.032Z,14.10
2023-03-02T12:00:50.089Z,11.33
2023-03-02T12:03:25.130Z,14.70
2023-03-02T12:06:07.161Z,11.77
2023-03-02T12:08:42.643Z,15.53
2023-03-02T12:11:34.081Z,27.43
2023-03-02T12:14:04.446Z,12.93
2023-03-02T12:16:38.943Z,16.03
2023-03-02T12:19:15.196Z,11.17
2023-03-02T12:21:44.772Z,12.97
2023-03-02T12:24:26.136Z,16.77
2023-03-02T12:27:03.705Z,15.43
2023-03-02T12:29:41.133Z,13.93
2023-03-02T12:32:28.229Z,12.93
2023-03-02T12:34:58.668Z,14.07
2023-03-02T12:37:29.355Z,12.23
2023-03-02T12:40:51.467Z,12.90
2023-03-02T12:43:29.306Z,13.33
2023-03-02T12:46:25.539Z,14.70
2023-03-02T12:49:00.898Z,13.33
2023-03-02T12:51:31.600Z,12.37
2023-03-02T12:54:06.626Z,11.33
2023-03-02T12:56:35.340Z,15.20
2023-03-02T12:59:03.463Z,12.43
2023-03-02T13:01:32.966Z,12.80
2023-03-02T13:04:02.519Z,15.53
2023-03-02T13:06:32.688Z,11.53
2023-03-02T13:09:01.531Z,11.33
2023-03-02T13:11:36.278Z,13.70
2023-03-02T13:14:19.688Z,11.60
2023-03-02T13:16:55.920Z,12.60
2023-03-02T13:19:26.374Z,13.23
2023-03-02T13:21:54.680Z,12.80
2023-03-02T13:24:34.366Z,11.30
2023-03-02T13:27:06.891Z,10.97
2023-03-02T13:29:35.504Z,10.37
2023-03-02T13:32:20.440Z,11.50
2023-03-02T13:34:53.588Z,14.37
2023-03-02T13:37:25.041Z,11.83
2023-03-02T13:39:57.576Z,14.10
2023-03-02T13:42:28.813Z,11.13
2023-03-02T13:44:56.988Z,12.20
2023-03-02T13:47:25.783Z,17.83
2023-03-02T13:49:55.391Z,16.27
2023-03-02T13:52:28.078Z,12.87
2023-03-02T13:55:00.347Z,13.00
2023-03-02T13:57:34.275Z,15.67
2023-03-02T14:00:02.411Z,13.40
2023-03-02T14:02:33.620Z,16.10
2023-03-02T14:05:03.710Z,14.67
2023-03-02T14:07:31.986Z,12.07
2023-03-02T14:10:03.582Z,12.07
2023-03-02T14:12:36.676Z,14.80
2023-03-02T14:15:06.137Z,12.47
2023-03-02T14:17:35.705Z,12.73
2023-03-02T14:20:05.655Z,12.13
2023-03-02T14:22:35.593Z,13.63
2023-03-02T14:25:11.302Z,11.17
2023-03-02T14:27:40.171Z,13.93
2023-03-02T14:30:19.225Z,14.87
2023-03-02T14:32:47.714Z,10.53
2023-03-02T14:35:17.521Z,11.10
2023-03-02T14:37:47.047Z,11.67
2023-03-02T14:40:19.000Z,9.27
2023-03-02T14:42:51.729Z,13.63
2023-03-02T14:45:21.466Z,12.93
2023-03-02T14:47:51.220Z,9.60
2023-03-02T14:50:20.610Z,13.33
2023-03-02T14:52:50.563Z,13.97
2023-03-02T14:55:23.629Z,11.17
2023-03-02T14:57:55.770Z,9.10
2023-03-02T15:00:24.574Z,14.13
2023-03-02T15:02:56.085Z,9.60
2023-03-02T15:05:25.827Z,15.33
2023-03-02T15:07:58.771Z,8.93
2023-03-02T15:10:27.075Z,13.87
2023-03-02T15:12:57.869Z,8.60
2023-03-02T15:15:27.382Z,9.97
2023-03-02T15:17:55.416Z,9.37
2023-03-02T15:20:24.906Z,8.30
2023-03-02T15:22:53.623Z,8.20
2023-03-02T15:25:23.929Z,13.37
2023-03-02T15:27:51.890Z,10.37
2023-03-02T15:30:20.987Z,10.20
2023-03-02T15:32:48.977Z,9.17
2023-03-02T15:35:17.111Z,8.67
2023-03-02T15:37:46.579Z,9.50
2023-03-02T15:40:15.359Z,10.13
2023-03-02T15:42:43.554Z,10.83
2023-03-02T15:45:12.543Z,8.67
2023-03-02T15:47:40.649Z,10.80
2023-03-02T15:50:10.609Z,14.83
2023-03-02T15:52:38.629Z,8.07
2023-03-02T15:55:08.725Z,9.00
2023-03-02T15:57:38.933Z,7.47
2023-03-02T16:00:08.493Z,8.10
2023-03-02T16:02:36.483Z,12.03
2023-03-02T16:05:04.808Z,9.63
2023-03-02T16:07:33.177Z,8.37
2023-03-02T16:10:03.340Z,8.43
2023-03-02T16:12:32.972Z,8.77
2023-03-02T16:15:00.955Z,6.80
2023-03-02T16:17:29.196Z,8.60
2023-03-02T16:19:57.360Z,8.20
2023-03-02T16:22:25.433Z,9.97
2023-03-02T16:24:53.389Z,9.63
2023-03-02T16:27:21.334Z,7.30
2023-03-02T16:29:50.925Z,9.37
2023-03-02T16:32:20.027Z,9.73
2023-03-02T16:34:48.103Z,7.13
2023-03-02T16:37:16.241Z,9.53
2023-03-02T16:39:44.230Z,8.50
2023-03-02T16:42:14.526Z,11.00
2023-03-02T16:44:44.579Z,11.70
2023-03-02T16:47:16.758Z,8.00
2023-03-02T16:49:44.797Z,9.00
2023-03-02T16:52:12.839Z,11.23
2023-03-02T16:54:40.947Z,10.63
2023-03-02T16:57:09.542Z,10.40
2023-03-02T16:59:40.532Z,9.30
2023-03-02T17:02:08.564Z,10.83
2023-03-02T17:04:38.001Z,8.73
2023-03-02T17:07:06.964Z,9.77
2023-03-02T17:09:35.857Z,8.10
2023-03-02T17:12:04.700Z,9.63
2023-03-02T17:14:32.631Z,8.67
2023-03-02T17:17:02.834Z,8.23
2023-03-02T17:19:30.784Z,9.27
2023-03-02T17:22:00.715Z,10.90
2023-03-02T17:24:29.082Z,10.17
2023-03-02T17:26:57.660Z,12.50
2023-03-02T17:29:25.884Z,10.17
2023-03-02T17:31:54.139Z,8.60
2023-03-02T17:34:22.168Z,8.57
2023-03-02T17:36:50.170Z,8.63
2023-03-02T17:39:19.611Z,8.57
2023-03-02T17:41:47.628Z,9.90
2023-03-02T17:44:15.762Z,5.83
2023-03-02T17:46:44.193Z,9.13
2023-03-02T17:49:12.954Z,6.50
2023-03-02T17:51:40.948Z,8.17
2023-03-02T17:54:08.927Z,10.47
2023-03-02T17:56:38.721Z,9.83
2023-03-02T17:59:06.847Z,9.20
2023-03-02T18:01:35.155Z,8.83
2023-03-02T18:04:03.711Z,8.60
2023-03-02T18:06:31.810Z,11.10
2023-03-02T18:09:00.700Z,9.10
2023-03-02T18:11:29.290Z,12.97
2023-03-02T18:13:59.020Z,10.00
2023-03-02T18:16:28.099Z,9.23
2023-03-02T18:18:56.454Z,12.53
2023-03-02T18:21:24.606Z,9.10
2023-03-02T18:23:52.640Z,12.17
2023-03-02T18:26:20.930Z,9.90
2023-03-02T18:28:49.166Z,10.53
2023-03-02T18:31:19.837Z,9.33
2023-03-02T18:33:48.446Z,8.30
2023-03-02T18:36:16.626Z,9.13
2023-03-02T18:38:44.616Z,8.97
2023-03-02T18:41:14.244Z,9.63
2023-03-02T18:43:43.154Z,11.00
2023-03-02T18:46:20.387Z,8.97
2023-03-02T18:48:49.729Z,7.03
2023-03-02T18:51:18.361Z,9.33
2023-03-02T18:53:47.294Z,8.97
2023-03-02T18:56:16.126Z,9.50
2023-03-02T18:58:44.347Z,8.70
2023-03-02T19:01:13.038Z,7.93
2023-03-02T19:03:45.902Z,10.60
2023-03-02T19:06:15.100Z,10.03
2023-03-02T19:08:43.397Z,9.90
2023-03-02T19:11:11.731Z,10.97
2023-03-02T19:13:39.913Z,8.10
2023-03-02T19:16:08.756Z,8.47
2023-03-02T19:18:37.835Z,8.70
2023-03-02T19:21:07.546Z,12.33
2023-03-02T19:23:35.712Z,7.87
2023-03-02T19:26:04.849Z,10.37
2023-03-02T19:28:38.045Z,8.50
2023-03-02T19:31:11.142Z,12.73
2023-03-02T19:33:40.064Z,9.93
2023-03-02T19:36:10.562Z,11.80
2023-03-02T19:38:41.655Z,10.07
2023-03-02T19:41:11.667Z,12.23
2023-03-02T19:43:40.467Z,9.27
2023-03-02T19:46:10.747Z,11.93
2023-03-02T19:48:39.018Z,11.33
2023-03-02T19:51:09.350Z,12.63
2023-03-02T19:53:40.692Z,12.43
2023-03-02T19:56:12.732Z,9.70
2023-03-02T19:58:47.260Z,9.00
2023-03-02T20:01:21.615Z,10.97
2023-03-02T20:03:51.720Z,9.23
2023-03-02T20:06:22.242Z,9.73
2023-03-02T20:08:50.928Z,10.03
2023-03-02T20:11:19.166Z,8.97
2023-03-02T20:13:48.256Z,10.50
2023-03-02T20:16:16.385Z,10.77
2023-03-02T20:18:45.555Z,9.17
2023-03-02T20:21:13.697Z,10.53
2023-03-02T20:23:43.153Z,12.00
2023-03-02T20:26:11.601Z,11.10
2023-03-02T20:28:39.642Z,8.87
2023-03-02T20:31:10.083Z,9.10
2023-03-02T20:33:41.783Z,11.33
2023-03-02T20:36:10.475Z,11.57
2023-03-02T20:38:42.414Z,12.33
2023-03-02T20:41:12.437Z,9.27
2023-03-02T20:43:41.428Z,11.50
2023-03-02T20:46:12.932Z,13.23
2023-03-02T20:48:41.106Z,16.00
2023-03-02T20:51:09.229Z,10.97
2023-03-02T20:53:37.298Z,12.10
2023-03-02T20:56:05.898Z,11.70
2023-03-02T20:58:37.082Z,10.60
2023-03-02T21:01:05.420Z,10.30
2023-03-02T21:03:33.540Z,10.07
2023-03-02T21:06:01.734Z,10.60
2023-03-02T21:08:29.943Z,10.97
2023-03-02T21:10:57.989Z,9.60
2023-03-02T21:13:26.037Z,10.30
2023-03-02T21:15:56.747Z,10.73
2023-03-02T21:18:24.852Z,11.73
2023-03-02T21:20:52.915Z,11.53
2023-03-02T21:23:21.030Z,16.23
2023-03-02T21:25:49.073Z,12.70
2023-03-02T21:28:17.148Z,14.97
2023-03-02T21:30:45.081Z,11.07
2023-03-02T21:33:14.520Z,13.73
2023-03-02T21:35:42.532Z,11.70
2023-03-02T21:38:11.636Z,13.43
2023-03-02T21:40:43.118Z,11.17
2023-03-02T21:43:11.198Z,15.40
2023-03-02T21:45:39.259Z,12.43
2023-03-02T21:48:08.058Z,12.63
2023-03-02T21:50:39.414Z,13.33
2023-03-02T21:53:07.893Z,14.93
2023-03-02T21:55:36.372Z,13.50
2023-03-02T21:58:06.156Z,14.87
2023-03-02T22:00:35.719Z,16.33
2023-03-02T22:03:04.179Z,13.67
2023-03-02T22:05:33.074Z,16.80
2023-03-02T22:08:02.470Z,14.33
2023-03-02T22:10:32.821Z,13.70
2023-03-02T22:13:14.994Z,15.43
2023-03-02T22:15:43.072Z,17.37
2023-03-02T22:18:12.589Z,16.70
2023-03-02T22:20:43.110Z,12.10
2023-03-02T22:23:14.100Z,15.60
2023-03-02T22:25:43.527Z,12.80
2023-03-02T22:28:16.345Z,16.97
2023-03-02T22:30:44.320Z,14.33
2023-03-02T22:33:19.832Z,12.40
2023-03-02T22:35:48.281Z,14.77
2023-03-02T22:38:21.943Z,17.93
2023-03-02T22:40:49.932Z,18.90
2023-03-02T22:43:25.950Z,18.07
2023-03-02T22:45:55.603Z,16.67
2023-03-02T22:48:25.538Z,16.17
2023-03-02T22:50:53.754Z,21.90
2023-03-02T22:53:29.027Z,14.90
2023-03-02T22:55:59.570Z,16.63
2023-03-02T22:58:44.268Z,14.30
2023-03-02T23:01:20.990Z,15.10
2023-03-02T23:03:50.785Z,16.50
2023-03-02T23:06:25.088Z,16.23
2023-03-02T23:08:55.334Z,16.40
2023-03-02T23:11:24.419Z,14.90
2023-03-02T23:13:53.419Z,17.17
2023-03-02T23:16:23.133Z,17.73
2023-03-02T23:18:51.754Z,16.60
2023-03-02T23:21:22.492Z,17.83
2023-03-02T23:23:51.343Z,15.43
2023-03-02T23:26:20.965Z,18.60
2023-03-02T23:28:49.636Z,18.20
2023-03-02T23:31:22.190Z,18.67
2023-03-02T23:33:50.533Z,20.23
2023-03-02T23:36:21.218Z,20.77
2023-03-02T23:38:49.451Z,18.60
2023-03-02T23:41:18.370Z,19.83
2023-03-02T23:43:47.873Z,21.10
2023-03-02T23:46:15.997Z,20.40
2023-03-02T23:48:44.347Z,21.70
2023-03-02T23:51:15.691Z,20.03
2023-03-02T23:53:44.085Z,20.60
2023-03-02T23:56:15.051Z,22.37
2023-03-02T23:58:43.109Z,23.67
